createdAt,value
2023-04-16T08:31:49.394Z,100.00
2023-04-16T08:33:52.259Z,100.00
2023-04-16T08:35:54.623Z,100.00
2023-04-16T08:37:57.984Z,100.00
2023-04-16T08:40:01.146Z,100.00
2023-04-16T08:42:06.362Z,100.00
2023-04-16T08:44:10.144Z,100.00
2023-04-16T08:46:12.945Z,100.00
2023-04-16T08:48:15.836Z,100.00
2023-04-16T08:50:24.161Z,100.00
2023-04-16T08:52:31.283Z,100.00
2023-04-16T08:55:12.813Z,100.00
2023-04-16T08:57:19.158Z,100.00
2023-04-16T08:59:22.327Z,100.00
2023-04-16T09:01:26.853Z,100.00
2023-04-16T09:03:33.215Z,100.00
2023-04-16T09:05:37.888Z,100.00
2023-04-16T09:07:42.216Z,100.00
2023-04-16T09:09:46.424Z,100.00
2023-04-16T09:11:53.157Z,100.00
2023-04-16T09:13:55.542Z,100.00
2023-04-16T09:15:58.233Z,100.00
2023-04-16T09:18:00.969Z,100.00
2023-04-16T09:20:12.578Z,100.00
2023-04-16T09:22:15.111Z,100.00
2023-04-16T09:24:18.709Z,100.00
2023-04-16T09:26:21.913Z,100.00
2023-04-16T09:28:43.666Z,100.00
2023-04-16T09:30:46.284Z,100.00
2023-04-16T09:32:50.059Z,100.00
2023-04-16T09:34:57.317Z,100.00
2023-04-16T09:37:18.503Z,100.00
2023-04-16T09:39:20.881Z,100.00
2023-04-16T09:41:28.563Z,100.00
2023-04-16T09:43:32.056Z,100.00
2023-04-16T09:45:49.017Z,100.00
2023-04-16T09:47:51.632Z,100.00
2023-04-16T09:49:59.174Z,100.00
2023-04-16T09:52:02.452Z,100.00
2023-04-16T09:54:06.680Z,100.00
2023-04-16T09:56:09.909Z,100.00
2023-04-16T09:58:12.735Z,100.00
2023-04-16T10:00:18.940Z,100.00
2023-04-16T10:02:23.326Z,100.00
2023-04-16T10:04:26.012Z,100.00
2023-04-16T10:06:29.555Z,100.00
2023-04-16T10:08:32.151Z,100.00
2023-04-16T10:10:34.518Z,100.00
2023-04-16T10:12:36.880Z,100.00
2023-04-16T10:14:40.213Z,100.00
2023-04-16T10:16:44.111Z,100.00
2023-04-16T10:18:47.434Z,100.00
2023-04-16T10:20:53.240Z,100.00
2023-04-16T10:22:56.835Z,100.00
2023-04-16T10:24:59.472Z,100.00
2023-04-16T10:27:02.621Z,100.00
2023-04-16T10:29:06.811Z,100.00
2023-04-16T10:31:09.752Z,100.00
2023-04-16T10:33:12.745Z,100.00
2023-04-16T10:35:16.902Z,100.00
2023-04-16T10:37:19.370Z,100.00
2023-04-16T10:39:24.123Z,100.00
2023-04-16T10:41:27.382Z,100.00
2023-04-16T10:43:31.857Z,100.00
2023-04-16T10:45:38.157Z,100.00
2023-04-16T10:47:40.786Z,100.00
2023-04-16T10:49:44.133Z,100.00
2023-04-16T10:51:59.172Z,100.00
2023-04-16T10:54:08.509Z,100.00
2023-04-16T10:56:14.177Z,100.00
2023-04-16T10:58:30.679Z,100.00
2023-04-16T11:00:49.430Z,97.93
2023-04-16T11:02:54.805Z,98.23
2023-04-16T11:04:58.799Z,98.26
2023-04-16T11:07:19.463Z,94.37
2023-04-16T11:09:50.573Z,90.92
2023-04-16T11:11:53.893Z,92.11
2023-04-16T11:13:57.165Z,91.60
2023-04-16T11:16:00.020Z,95.42
2023-04-16T11:18:04.235Z,94.66
2023-04-16T11:20:20.899Z,87.35
2023-04-16T11:22:24.328Z,81.47
2023-04-16T11:24:30.945Z,78.91
2023-04-16T11:26:33.266Z,82.16
2023-04-16T11:28:36.004Z,87.24
2023-04-16T11:30:39.656Z,78.81
2023-04-16T11:32:44.065Z,76.21
2023-04-16T11:34:46.470Z,75.28
2023-04-16T11:36:51.990Z,70.04
2023-04-16T11:39:02.140Z,67.61
2023-04-16T11:41:04.521Z,63.45
2023-04-16T11:43:15.008Z,67.86
2023-04-16T11:45:19.465Z,79.85
2023-04-16T11:47:24.114Z,78.35
2023-04-16T11:49:28.965Z,86.34
2023-04-16T11:51:32.531Z,83.05
2023-04-16T11:53:36.538Z,80.87
2023-04-16T11:55:45.799Z,84.68
2023-04-16T11:57:48.473Z,85.00
2023-04-16T12:00:01.588Z,75.47
2023-04-16T12:02:14.786Z,70.90
2023-04-16T12:04:20.580Z,64.02
2023-04-16T12:06:24.405Z,61.39
2023-04-16T12:08:30.998Z,62.48
2023-04-16T12:10:52.511Z,61.11
2023-04-16T12:12:54.990Z,61.42
2023-04-16T12:14:59.663Z,61.28
2023-04-16T12:17:21.627Z,60.23
2023-04-16T12:19:24.054Z,59.56
2023-04-16T12:21:35.597Z,56.81
2023-04-16T12:23:38.145Z,55.65
2023-04-16T12:25:43.098Z,51.64
2023-04-16T12:27:51.330Z,51.42
2023-04-16T12:30:07.270Z,53.57
2023-04-16T12:32:23.444Z,54.36
2023-04-16T12:34:48.208Z,54.01
2023-04-16T12:37:02.892Z,53.81
2023-04-16T12:39:05.298Z,54.73
2023-04-16T12:41:07.779Z,54.01
2023-04-16T12:43:10.796Z,52.50
2023-04-16T12:45:13.220Z,53.59
2023-04-16T12:47:15.796Z,54.71
2023-04-16T12:49:18.694Z,57.48
2023-04-16T12:51:21.061Z,56.34
2023-04-16T12:53:23.399Z,55.67
2023-04-16T12:55:26.110Z,57.40
2023-04-16T12:57:28.883Z,57.55
2023-04-16T12:59:31.245Z,53.89
2023-04-16T13:01:36.802Z,52.85
2023-04-16T13:03:39.400Z,52.42
2023-04-16T13:05:41.993Z,48.17
2023-04-16T13:07:44.969Z,47.39
2023-04-16T13:09:47.674Z,48.10
2023-04-16T13:11:49.980Z,48.09
2023-04-16T13:13:52.752Z,48.93
2023-04-16T13:15:55.394Z,49.26
2023-04-16T13:17:57.912Z,49.68
2023-04-16T13:20:00.706Z,50.11
2023-04-16T13:22:03.140Z,53.58
2023-04-16T13:24:05.984Z,52.74
2023-04-16T13:26:08.791Z,53.00
2023-04-16T13:28:11.590Z,54.66
2023-04-16T13:30:14.657Z,55.22
2023-04-16T13:32:18.955Z,55.34
2023-04-16T13:34:21.555Z,55.93
2023-04-16T13:36:25.057Z,59.37
2023-04-16T13:38:29.036Z,60.12
2023-04-16T13:40:32.861Z,60.11
2023-04-16T13:42:35.203Z,62.61
2023-04-16T13:44:37.846Z,66.69
2023-04-16T13:46:40.739Z,63.93
2023-04-16T13:48:43.136Z,63.26
2023-04-16T13:50:46.246Z,61.82
2023-04-16T13:52:49.000Z,65.18
2023-04-16T13:54:51.678Z,66.60
2023-04-16T13:56:54.887Z,67.86
2023-04-16T13:58:57.257Z,70.15
2023-04-16T14:01:00.474Z,67.74
2023-04-16T14:03:03.944Z,69.29
2023-04-16T14:05:07.112Z,69.67
2023-04-16T14:07:09.934Z,70.29
2023-04-16T14:09:13.123Z,67.75
2023-04-16T14:11:15.931Z,65.32
2023-04-16T14:13:18.404Z,64.71
2023-04-16T14:15:21.411Z,63.29
2023-04-16T14:17:23.831Z,64.07
2023-04-16T14:19:26.856Z,65.26
2023-04-16T14:21:31.217Z,67.04
2023-04-16T14:23:34.003Z,66.62
2023-04-16T14:25:36.661Z,67.75
2023-04-16T14:27:39.607Z,69.86
2023-04-16T14:29:42.058Z,69.54
2023-04-16T14:31:45.970Z,70.68
2023-04-16T14:33:48.598Z,72.53
2023-04-16T14:35:51.527Z,70.81
2023-04-16T14:37:53.890Z,70.29
2023-04-16T14:39:56.970Z,70.24
2023-04-16T14:41:59.829Z,69.27
2023-04-16T14:44:02.503Z,68.38
2023-04-16T14:46:06.710Z,67.36
2023-04-16T14:48:09.629Z,65.38
2023-04-16T14:50:13.087Z,64.61
2023-04-16T14:52:16.157Z,64.50
2023-04-16T14:54:19.688Z,62.95
2023-04-16T14:56:22.339Z,61.78
2023-04-16T14:58:26.043Z,60.23
2023-04-16T15:00:28.629Z,60.08
2023-04-16T15:02:31.513Z,59.23
2023-04-16T15:04:34.537Z,59.58
2023-04-16T15:06:39.090Z,58.74
2023-04-16T15:08:41.681Z,57.61
2023-04-16T15:10:45.903Z,58.90
2023-04-16T15:12:48.563Z,58.24
2023-04-16T15:14:51.092Z,57.03
2023-04-16T15:16:54.294Z,56.11
2023-04-16T15:18:57.805Z,56.69
2023-04-16T15:21:00.946Z,57.16
2023-04-16T15:23:04.658Z,56.91
2023-04-16T15:25:07.961Z,55.04
2023-04-16T15:27:14.740Z,56.09
2023-04-16T15:29:17.412Z,56.09
2023-04-16T15:31:21.206Z,56.16
2023-04-16T15:33:24.476Z,56.81
2023-04-16T15:35:27.699Z,57.03
2023-04-16T15:37:30.650Z,57.98
2023-04-16T15:39:33.301Z,57.95
2023-04-16T15:41:50.216Z,58.97
2023-04-16T15:43:59.919Z,57.74
2023-04-16T15:46:03.153Z,55.92
2023-04-16T15:48:06.861Z,55.14
2023-04-16T15:50:10.630Z,55.10
2023-04-16T15:52:13.699Z,55.73
2023-04-16T15:54:18.927Z,56.58
2023-04-16T15:56:21.563Z,56.40
2023-04-16T15:58:24.691Z,56.51
2023-04-16T16:00:28.402Z,57.45
2023-04-16T16:02:31.947Z,58.45
2023-04-16T16:04:36.060Z,58.80
2023-04-16T16:06:38.806Z,59.60
2023-04-16T16:08:42.281Z,61.07
2023-04-16T16:10:45.227Z,62.08
2023-04-16T16:12:51.318Z,63.64
2023-04-16T16:14:54.335Z,64.30
2023-04-16T16:16:56.856Z,64.44
2023-04-16T16:18:59.967Z,65.51
2023-04-16T16:21:03.574Z,65.10
2023-04-16T16:23:06.462Z,66.01
2023-04-16T16:25:10.430Z,66.70
2023-04-16T16:27:13.852Z,67.22
2023-04-16T16:29:16.929Z,67.08
2023-04-16T16:31:22.201Z,67.79
2023-04-16T16:33:25.426Z,69.24
2023-04-16T16:35:28.574Z,71.01
2023-04-16T16:37:34.602Z,72.60
2023-04-16T16:39:38.977Z,73.84
2023-04-16T16:41:42.553Z,74.59
2023-04-16T16:43:45.948Z,73.74
2023-04-16T16:45:50.593Z,75.19
2023-04-16T16:47:55.149Z,76.04
2023-04-16T16:50:02.603Z,75.17
2023-04-16T16:52:06.351Z,76.32
2023-04-16T16:54:10.992Z,78.30
2023-04-16T16:56:15.078Z,78.53
2023-04-16T16:58:18.608Z,78.67
2023-04-16T17:00:22.351Z,79.25
2023-04-16T17:02:25.688Z,80.70
2023-04-16T17:04:29.244Z,81.08
2023-04-16T17:06:33.595Z,80.78
2023-04-16T17:08:37.690Z,80.07
2023-04-16T17:10:41.198Z,80.27
2023-04-16T17:12:51.743Z,80.06
2023-04-16T17:14:55.959Z,81.74
2023-04-16T17:16:59.410Z,82.34
2023-04-16T17:19:03.022Z,82.33
2023-04-16T17:21:06.553Z,84.71
2023-04-16T17:23:09.854Z,86.03
2023-04-16T17:25:13.476Z,87.52
2023-04-16T17:27:16.601Z,87.47
2023-04-16T17:29:23.563Z,88.64
2023-04-16T17:31:27.656Z,90.22
2023-04-16T17:33:31.274Z,91.85
2023-04-16T17:35:37.669Z,92.69
2023-04-16T17:37:40.479Z,94.57
2023-04-16T17:39:43.746Z,96.09
2023-04-16T17:41:47.009Z,96.94
2023-04-16T17:43:52.435Z,97.59
2023-04-16T17:45:55.504Z,97.99
2023-04-16T17:47:59.431Z,98.77
2023-04-16T17:50:03.956Z,98.50
2023-04-16T17:52:07.273Z,98.96
2023-04-16T17:54:11.211Z,98.85
2023-04-16T17:56:16.001Z,99.66
2023-04-16T17:58:22.023Z,100.00
2023-04-16T18:00:25.338Z,100.00
2023-04-16T18:02:28.643Z,100.00
2023-04-16T18:04:32.441Z,100.00
2023-04-16T18:06:36.085Z,100.00
2023-04-16T18:08:39.599Z,100.00
2023-04-16T18:10:42.857Z,100.00
2023-04-16T18:12:46.697Z,100.00
2023-04-16T18:14:49.999Z,100.00
2023-04-16T18:16:52.939Z,100.00
2023-04-16T18:18:56.427Z,100.00
2023-04-16T18:21:00.211Z,100.00
2023-04-16T18:23:03.101Z,100.00
2023-04-16T18:25:07.298Z,100.00
2023-04-16T18:27:12.933Z,100.00
2023-04-16T18:29:17.817Z,100.00
2023-04-16T18:31:21.753Z,100.00
2023-04-16T18:33:52.558Z,100.00
2023-04-16T18:35:50.654Z,100.00
2023-04-16T18:37:54.184Z,100.00
2023-04-16T18:39:58.206Z,100.00
2023-04-16T18:42:02.115Z,100.00
2023-04-16T18:44:05.627Z,100.00
2023-04-16T18:46:09.283Z,100.00
2023-04-16T18:48:11.618Z,100.00
2023-04-16T18:50:14.669Z,100.00
2023-04-16T18:52:18.334Z,100.00
2023-04-16T18:54:23.193Z,100.00
2023-04-16T18:56:30.616Z,100.00
2023-04-16T18:58:35.100Z,100.00
2023-04-16T19:00:38.414Z,100.00
2023-04-16T19:02:41.775Z,100.00
2023-04-16T19:04:45.812Z,100.00
2023-04-16T19:06:49.069Z,100.00
2023-04-16T19:08:53.738Z,100.00
2023-04-16T19:10:59.375Z,100.00
2023-04-16T19:13:02.966Z,100.00
2023-04-16T19:15:07.426Z,100.00
2023-04-16T19:17:12.670Z,100.00
2023-04-16T19:19:19.779Z,100.00
2023-04-16T19:21:23.658Z,100.00
2023-04-16T19:23:27.326Z,100.00
2023-04-16T19:25:31.806Z,100.00
2023-04-16T19:27:37.118Z,100.00
2023-04-16T19:29:42.761Z,100.00
2023-04-16T19:31:47.272Z,100.00
2023-04-16T19:33:53.995Z,100.00
2023-04-16T19:35:57.469Z,100.00
2023-04-16T19:38:01.228Z,100.00
2023-04-16T19:40:06.636Z,100.00
2023-04-16T19:42:10.039Z,100.00
2023-04-16T19:44:13.770Z,100.00
2023-04-16T19:46:16.806Z,100.00
2023-04-16T19:48:21.932Z,100.00
2023-04-16T19:50:25.710Z,100.00
2023-04-16T19:52:29.333Z,100.00
2023-04-16T19:54:34.275Z,100.00
2023-04-16T19:56:39.755Z,100.00
2023-04-16T19:58:42.699Z,100.00
2023-04-16T20:00:46.910Z,100.00
2023-04-16T20:02:50.468Z,100.00
2023-04-16T20:04:53.721Z,100.00
2023-04-16T20:06:57.228Z,100.00
2023-04-16T20:09:00.607Z,100.00
2023-04-16T20:11:03.850Z,100.00
2023-04-16T20:13:12.301Z,100.00
2023-04-16T20:15:16.591Z,100.00
2023-04-16T20:17:20.274Z,100.00
2023-04-16T20:19:26.516Z,100.00
2023-04-16T20:21:29.450Z,100.00
2023-04-16T20:23:32.364Z,100.00
2023-04-16T20:25:36.936Z,100.00
2023-04-16T20:27:40.318Z,100.00
2023-04-16T20:29:43.569Z,100.00
2023-04-16T20:31:46.274Z,100.00
2023-04-16T20:33:49.275Z,100.00
2023-04-16T20:35:52.320Z,100.00
2023-04-16T20:37:55.076Z,100.00
2023-04-16T20:39:57.868Z,100.00
2023-04-16T20:42:00.936Z,100.00
2023-04-16T20:44:05.646Z,100.00
2023-04-16T20:46:09.491Z,100.00
2023-04-16T20:48:12.939Z,100.00
2023-04-16T20:50:16.018Z,100.00
2023-04-16T20:52:18.932Z,100.00
2023-04-16T20:54:21.535Z,100.00
2023-04-16T20:56:23.899Z,100.00
2023-04-16T20:58:27.465Z,100.00
2023-04-16T21:00:30.015Z,100.00
2023-04-16T21:02:32.772Z,100.00
2023-04-16T21:04:35.584Z,100.00
2023-04-16T21:06:38.705Z,100.00
2023-04-16T21:08:41.209Z,100.00
2023-04-16T21:10:45.220Z,100.00
2023-04-16T21:12:47.553Z,100.00
2023-04-16T21:14:49.840Z,100.00
2023-04-16T21:16:52.568Z,100.00
2023-04-16T21:18:55.642Z,100.00
2023-04-16T21:20:59.047Z,100.00
2023-04-16T21:23:02.772Z,100.00
2023-04-16T21:25:05.775Z,100.00
2023-04-16T21:27:08.142Z,100.00
2023-04-16T21:29:11.112Z,100.00
2023-04-16T21:31:13.648Z,100.00
2023-04-16T21:33:16.716Z,100.00
2023-04-16T21:35:19.477Z,100.00
2023-04-16T21:37:21.845Z,100.00
2023-04-16T21:39:27.533Z,100.00
2023-04-16T21:41:30.160Z,100.00
2023-04-16T21:43:32.677Z,100.00
2023-04-16T21:45:35.273Z,100.00
2023-04-16T21:47:38.303Z,100.00
2023-04-16T21:49:42.391Z,100.00
2023-04-16T21:51:46.140Z,100.00
2023-04-16T21:53:48.859Z,100.00
2023-04-16T21:55:51.191Z,100.00
2023-04-16T21:57:53.532Z,100.00
2023-04-16T21:59:56.319Z,100.00
2023-04-16T22:01:58.684Z,100.00
2023-04-16T22:04:02.162Z,100.00
2023-04-16T22:06:05.346Z,100.00
2023-04-16T22:08:23.246Z,100.00
2023-04-16T22:10:27.327Z,100.00
2023-04-16T22:12:30.609Z,100.00
2023-04-16T22:14:37.048Z,100.00
2023-04-16T22:16:40.270Z,100.00
